createdAt,value
2023-05-23T04:22:36.470Z,74.40
2023-05-23T04:46:35.508Z,36.35
2023-05-23T04:49:19.611Z,31.95
2023-05-23T05:51:19.487Z,48.13
2023-05-23T06:04:43.269Z,66.33
2023-05-23T06:21:16.917Z,60.42
2023-05-23T06:24:10.105Z,50.55
2023-05-23T06:26:41.681Z,48.80
2023-05-23T06:29:14.722Z,72.13
2023-05-23T06:31:46.573Z,41.47
2023-05-23T06:34:16.521Z,50.90
2023-05-23T06:36:48.274Z,61.33
2023-05-23T06:39:19.675Z,46.80
2023-05-23T06:41:50.754Z,54.13
2023-05-23T06:44:23.000Z,56.47
2023-05-23T06:46:58.917Z,46.95
2023-05-23T06:51:59.688Z,38.67
2023-05-23T06:54:29.404Z,47.55
2023-05-23T06:57:18.570Z,42.55
2023-05-23T06:59:48.584Z,36.95
2023-05-23T07:02:19.342Z,41.88
2023-05-23T07:04:53.378Z,36.97
2023-05-23T07:07:44.601Z,53.65
2023-05-23T07:10:15.303Z,39.15
2023-05-23T07:12:45.953Z,59.95
2023-05-23T07:15:18.030Z,64.35
2023-05-23T07:18:02.703Z,54.20
2023-05-23T07:20:36.004Z,46.05
2023-05-23T07:23:14.273Z,47.25
2023-05-23T07:26:02.641Z,41.55
2023-05-23T07:28:47.858Z,52.17
2023-05-23T07:31:19.054Z,46.63
2023-05-23T07:33:49.492Z,54.80
2023-05-23T07:36:29.169Z,61.15
2023-05-23T07:38:58.642Z,63.25
2023-05-23T07:41:29.136Z,58.80
2023-05-23T07:43:58.893Z,52.67
2023-05-23T07:46:29.276Z,83.53
2023-05-23T07:49:00.519Z,53.00
2023-05-23T07:51:30.270Z,90.70
2023-05-23T07:54:00.199Z,55.45
2023-05-23T07:56:32.399Z,49.05
2023-05-23T07:59:02.545Z,64.80
2023-05-23T08:01:32.815Z,55.03
2023-05-23T08:04:09.713Z,54.75
2023-05-23T08:07:04.404Z,46.15
2023-05-23T08:09:45.404Z,35.15
2023-05-23T08:12:22.388Z,41.25
2023-05-23T08:15:00.832Z,43.53
2023-05-23T08:17:35.342Z,41.10
2023-05-23T08:20:13.018Z,39.17
2023-05-23T08:26:54.373Z,46.80
2023-05-23T08:29:24.255Z,44.38
2023-05-23T08:32:13.568Z,35.17
2023-05-23T08:35:04.881Z,52.17
2023-05-23T08:37:59.591Z,30.70
2023-05-23T08:40:53.382Z,38.40
2023-05-23T08:43:45.496Z,53.13
2023-05-23T08:46:47.313Z,43.90
2023-05-23T08:49:49.356Z,50.88
2023-05-23T08:52:52.068Z,50.58
2023-05-23T08:58:35.422Z,71.70
2023-05-23T09:01:27.943Z,100.20
2023-05-23T09:04:21.512Z,154.48
2023-05-23T09:07:21.218Z,92.63
2023-05-23T09:10:17.944Z,110.70
2023-05-23T09:13:11.270Z,71.85
2023-05-23T09:16:09.048Z,67.55
2023-05-23T09:19:13.867Z,70.20
2023-05-23T09:22:10.454Z,125.35
2023-05-23T09:25:13.533Z,89.22
2023-05-23T09:28:06.119Z,57.17
2023-05-23T12:19:08.694Z,44.55
2023-05-23T12:21:44.039Z,41.80
2023-05-23T12:24:18.511Z,42.58
2023-05-23T12:26:49.474Z,47.58
2023-05-23T12:32:07.554Z,59.10
2023-05-23T12:34:42.473Z,38.67
2023-05-23T12:37:19.452Z,53.95
2023-05-23T12:39:49.692Z,42.88
2023-05-23T12:42:19.256Z,58.20
2023-05-23T12:44:52.783Z,63.83
2023-05-23T12:47:22.463Z,48.28
2023-05-23T12:49:51.573Z,46.47
2023-05-23T12:52:20.917Z,52.03
2023-05-23T12:54:50.484Z,41.90
2023-05-23T12:57:19.981Z,35.80
2023-05-23T12:59:49.189Z,39.30
2023-05-23T13:02:18.616Z,42.25
2023-05-23T13:04:47.787Z,31.48
2023-05-23T13:07:17.714Z,34.50
2023-05-23T13:09:46.870Z,58.50
2023-05-23T13:12:16.188Z,59.45
2023-05-23T13:14:45.390Z,41.45
2023-05-23T13:17:15.483Z,36.97
2023-05-23T13:19:47.925Z,46.70
2023-05-23T13:22:20.469Z,57.15
2023-05-23T13:24:49.951Z,54.55
2023-05-23T13:27:19.712Z,79.47
2023-05-23T13:29:49.087Z,43.58
2023-05-23T13:32:18.735Z,36.28
2023-05-23T13:34:47.908Z,46.75
2023-05-23T13:37:17.406Z,43.78
2023-05-23T13:39:46.861Z,38.28
2023-05-23T13:42:16.868Z,41.88
2023-05-23T13:44:45.900Z,50.90
2023-05-23T13:47:16.774Z,46.63
2023-05-23T13:52:16.233Z,58.35
2023-05-23T13:54:45.461Z,54.72
2023-05-23T13:57:14.953Z,55.63
2023-05-23T13:59:44.104Z,45.70
2023-05-23T14:02:13.604Z,54.80
2023-05-23T14:04:42.760Z,49.35
2023-05-23T14:07:12.125Z,47.80
2023-05-23T14:09:41.838Z,56.17
2023-05-23T14:12:11.158Z,49.70
2023-05-23T14:14:40.275Z,60.90
2023-05-23T14:17:09.677Z,105.90
2023-05-23T14:19:39.114Z,58.42
2023-05-23T14:22:08.550Z,62.92
2023-05-23T14:24:37.570Z,59.95
2023-05-23T14:27:10.230Z,48.35
2023-05-23T14:29:41.695Z,41.67
2023-05-23T14:32:11.302Z,47.03
2023-05-23T14:34:40.400Z,54.20
2023-05-23T14:37:09.806Z,54.28
2023-05-23T14:39:41.280Z,57.35
2023-05-23T14:42:11.172Z,70.53
2023-05-23T14:44:40.652Z,59.85
2023-05-23T14:47:09.905Z,71.03
2023-05-23T14:49:39.053Z,66.63
2023-05-23T14:52:08.509Z,71.15
2023-05-23T14:54:37.521Z,66.07
2023-05-23T14:57:06.981Z,105.32
2023-05-23T14:59:36.503Z,62.08
2023-05-23T15:02:08.441Z,47.17
2023-05-23T15:04:38.396Z,52.28
2023-05-23T15:07:07.723Z,51.35
2023-05-23T15:09:37.459Z,33.22
2023-05-23T15:12:08.745Z,56.20
2023-05-23T15:14:38.354Z,55.33
2023-05-23T15:17:10.643Z,44.47
2023-05-23T15:22:18.746Z,52.97
2023-05-23T15:24:52.136Z,38.95
2023-05-23T15:27:23.442Z,28.70
2023-05-23T15:29:52.693Z,62.30
2023-05-23T15:32:22.351Z,47.08
2023-05-23T15:34:51.559Z,54.78
2023-05-23T15:37:21.020Z,47.28
2023-05-23T15:39:51.089Z,50.60
2023-05-23T15:42:20.282Z,43.92
2023-05-23T15:44:49.778Z,68.95
2023-05-23T15:47:19.917Z,57.13
2023-05-23T15:49:49.377Z,49.45
2023-05-23T15:52:18.847Z,63.53
2023-05-23T15:54:48.017Z,65.32
2023-05-23T15:57:17.756Z,75.28
2023-05-23T15:59:46.734Z,66.03
2023-05-23T16:02:18.165Z,81.65
2023-05-23T16:04:47.399Z,79.07
2023-05-23T16:07:18.533Z,78.20
2023-05-23T16:09:47.927Z,49.25
2023-05-23T16:12:17.130Z,79.05
2023-05-23T16:14:46.283Z,67.10
2023-05-23T16:17:15.509Z,75.47
2023-05-23T16:19:44.928Z,75.05
2023-05-23T16:22:14.154Z,65.60
2023-05-23T16:24:43.440Z,85.80
2023-05-23T16:27:13.184Z,55.85
2023-05-23T16:29:42.172Z,92.35
2023-05-23T16:32:11.774Z,76.50
2023-05-23T16:34:41.447Z,82.43
2023-05-23T16:37:11.082Z,82.05
2023-05-23T16:39:44.015Z,84.63
2023-05-23T16:42:13.365Z,84.28
2023-05-23T16:44:42.969Z,86.22
2023-05-23T16:47:12.566Z,94.68
2023-05-23T16:49:41.813Z,80.15
2023-05-23T16:52:11.114Z,80.95
2023-05-23T16:54:40.665Z,100.85
2023-05-23T16:57:09.815Z,91.30
2023-05-23T16:59:39.060Z,68.95
2023-05-23T17:02:09.253Z,75.35
2023-05-23T17:04:38.582Z,81.00
2023-05-23T17:07:10.562Z,79.18
2023-05-23T17:09:42.498Z,78.53
2023-05-23T17:12:13.668Z,87.68
2023-05-23T17:14:42.890Z,82.50
2023-05-23T17:17:12.188Z,66.88
2023-05-23T17:19:41.932Z,69.20
2023-05-23T17:22:11.139Z,76.53
2023-05-23T17:24:40.581Z,60.22
2023-05-23T17:27:09.992Z,49.85
2023-05-23T17:29:39.147Z,62.10
2023-05-23T17:32:08.786Z,49.70
2023-05-23T17:34:37.910Z,65.95
2023-05-23T17:37:07.427Z,57.90
2023-05-23T17:39:36.816Z,53.22
2023-05-23T17:42:06.687Z,59.97
2023-05-23T17:44:36.155Z,62.08
2023-05-23T17:47:05.493Z,52.25
2023-05-23T17:49:34.952Z,47.08
2023-05-23T17:52:06.900Z,67.15
2023-05-23T17:57:05.868Z,44.05
2023-05-23T17:59:35.029Z,58.80
2023-05-23T18:02:05.998Z,75.78
2023-05-23T18:04:35.868Z,47.88
2023-05-23T18:07:07.176Z,53.50
2023-05-23T18:09:36.422Z,59.85
2023-05-23T18:12:06.102Z,49.10
2023-05-23T18:14:36.046Z,41.78
2023-05-23T18:17:05.364Z,50.35
2023-05-23T18:19:35.329Z,44.22
2023-05-23T18:22:04.608Z,53.50
2023-05-23T18:24:33.900Z,43.85
2023-05-23T18:27:04.659Z,41.53
2023-05-23T18:29:34.084Z,65.57
2023-05-23T18:32:03.657Z,37.75
2023-05-23T18:34:33.019Z,53.72
2023-05-23T18:37:04.296Z,48.17
2023-05-23T18:39:33.537Z,102.43
2023-05-23T18:42:02.954Z,65.70
2023-05-23T18:44:32.146Z,67.25
2023-05-23T18:47:01.516Z,74.70
2023-05-23T18:49:30.733Z,62.28
2023-05-23T18:52:00.738Z,51.03
2023-05-23T18:54:29.900Z,72.85
2023-05-23T18:56:59.187Z,51.42
2023-05-23T18:59:28.539Z,80.38
2023-05-23T19:02:00.388Z,79.05
2023-05-23T19:04:29.901Z,58.85
2023-05-23T19:06:59.537Z,154.13
2023-05-23T19:09:29.041Z,194.20
2023-05-23T19:11:58.403Z,451.40
2023-05-23T19:14:27.460Z,228.93
2023-05-23T19:16:57.004Z,593.95
2023-05-23T19:19:27.915Z,261.15
2023-05-23T19:21:59.428Z,288.33
2023-05-23T19:24:28.784Z,302.48
2023-05-23T19:26:58.322Z,324.38
2023-05-23T19:29:28.204Z,327.30
2023-05-23T19:31:57.509Z,252.25
2023-05-23T19:34:27.436Z,181.25
2023-05-23T19:36:56.901Z,224.27
2023-05-23T19:39:26.071Z,158.95
2023-05-23T19:41:55.509Z,144.23
2023-05-23T19:44:25.250Z,193.13
2023-05-23T19:46:54.483Z,495.27
2023-05-23T19:49:24.176Z,582.80
2023-05-23T19:51:53.485Z,527.50
2023-05-23T19:54:24.284Z,445.67
2023-05-23T19:56:54.621Z,246.63
2023-05-23T19:59:23.575Z,174.05
2023-05-23T20:01:52.784Z,87.28
2023-05-23T20:04:25.247Z,176.00
2023-05-23T20:09:24.180Z,112.32
2023-05-23T20:11:53.679Z,61.40
2023-05-23T20:14:23.174Z,92.82
2023-05-23T20:16:54.966Z,85.97
2023-05-23T20:21:53.568Z,85.78
2023-05-23T20:24:23.107Z,72.32
2023-05-23T20:26:52.702Z,48.13
2023-05-23T20:29:22.748Z,24.55
2023-05-23T20:31:52.069Z,19.67
2023-05-23T20:34:22.077Z,26.35
2023-05-23T20:36:51.341Z,22.73
2023-05-23T20:39:22.147Z,15.60
2023-05-23T20:41:51.689Z,13.80
2023-05-23T20:44:21.245Z,11.35
2023-05-23T20:46:50.819Z,13.43
2023-05-23T20:49:20.209Z,14.75
2023-05-23T20:51:49.365Z,17.67
2023-05-23T20:54:18.910Z,10.25
2023-05-23T20:56:48.240Z,8.60
2023-05-23T20:59:19.137Z,16.85
2023-05-23T21:24:22.998Z,16.38
2023-05-23T21:26:53.221Z,27.20
2023-05-23T21:29:22.327Z,22.77
2023-05-23T21:31:51.604Z,14.13
2023-05-23T21:34:24.330Z,7.70
2023-05-23T21:36:54.527Z,10.88
2023-05-23T21:39:23.938Z,7.93
2023-05-23T21:41:53.004Z,11.88
2023-05-23T21:44:22.448Z,24.02
2023-05-23T21:46:52.066Z,14.63
2023-05-23T21:49:21.580Z,8.63
2023-05-23T21:51:51.270Z,16.27
2023-05-23T21:58:17.338Z,6.18
2023-05-23T22:00:50.080Z,13.38
2023-05-23T22:03:38.315Z,14.30
2023-05-23T22:06:08.084Z,12.38
2023-05-23T22:08:59.048Z,10.85
2023-05-23T22:11:34.754Z,8.75
2023-05-23T22:17:58.816Z,9.23
2023-05-23T22:21:29.632Z,12.73
2023-05-23T22:28:21.304Z,8.60
2023-05-23T22:30:50.576Z,9.00
2023-05-23T22:33:19.692Z,9.52
2023-05-23T22:36:26.236Z,8.60
2023-05-23T22:38:55.810Z,10.23
2023-05-23T22:45:43.577Z,8.38
2023-05-23T22:48:12.902Z,10.75
2023-05-23T22:50:42.353Z,9.75
2023-05-23T22:53:12.869Z,17.90
2023-05-23T22:55:42.223Z,13.90
2023-05-23T22:58:11.665Z,14.88
2023-05-23T23:00:41.236Z,15.95
2023-05-23T23:03:10.641Z,12.90
2023-05-23T23:05:40.107Z,15.02
2023-05-23T23:08:09.555Z,23.67
2023-05-23T23:10:39.199Z,14.07
2023-05-23T23:13:48.907Z,10.82
2023-05-23T23:16:20.423Z,18.67
2023-05-23T23:18:50.280Z,13.53
2023-05-23T23:21:19.605Z,8.15
2023-05-23T23:23:49.316Z,14.65
2023-05-23T23:26:18.537Z,12.15
2023-05-23T23:28:47.824Z,13.68
2023-05-23T23:31:17.160Z,6.60
2023-05-23T23:33:46.490Z,6.10
2023-05-23T23:36:15.639Z,10.60
2023-05-23T23:38:45.295Z,4.95
2023-05-23T23:41:14.367Z,7.70
2023-05-23T23:43:43.630Z,13.02
2023-05-23T23:46:13.286Z,5.90
2023-05-23T23:48:42.591Z,9.77
2023-05-23T23:51:11.552Z,9.82
2023-05-23T23:53:41.038Z,5.88
2023-05-23T23:56:10.200Z,7.53
2023-05-23T23:58:39.326Z,8.25
